aviador You're here:

K2DP Decoded Metar

STUMPY POINT in NC, USA
Report Time2017-07-21 03:56:00
UTC Time2017-07-21 04:27:50
Flight Rules vfr VFR
Wind210° at 08 kt
W.Rank210° ranks 1
Current wind is above 210° avg. (7.8)
Visibility9999 m
Phenomena:N/A
Clouds:N/A
Expected CloudBase > 800 ft AGL from Temp-Dew spread
CeilingNone
Temp25°C (ISA +10)
Dew Point23°C (89% RH)
QNH1016 hPa
Density Alt1,437 ft
Elevation10 ft
Report Wrong Elevation
Raw Report
K2DP 210356Z AUTO 21008KT 10SM CLR 25/23 A3001 RMK AO2 SLPNO
T02520229 $=

Extra information for K2DP:More info

Metar Taf Metar & Taf Last 4 Metars F.Rules Stats Wind Profile Meteogram Temp Stats Airport Information Weather charts Add Link Nearby VenuesMetar ALERT Operation Metar Decoded Social comments

AIRNAV info for K2DP